Time,TemperatureF,DewpointF,PressureIn,WindDirection,WindDirectionDegrees,WindSpeedMPH,WindSpeedGustMPH,Humidity,HourlyPrecipIn,Conditions,Clouds,dailyrainin,SoftwareType,DateUTC
2013-05-24 00:00:00,27.0,26.0,-100.00,SE,127,20.0,31.0,96,-99.99,,,-99.99,,2013-05-24 07:00:00,
2013-05-24 00:52:00,27.0,26.0,-100.00,SE,127,20.0,31.0,96,-99.99,,,-99.99,,2013-05-24 07:52:00,
2013-05-24 01:00:00,27.0,27.0,-100.00,SSE,147,14.0,25.0,98,-99.99,,,-99.99,,2013-05-24 08:00:00,
2013-05-24 01:52:00,27.0,27.0,-100.00,SSE,147,14.0,25.0,98,-99.99,,,-99.99,,2013-05-24 08:52:00,
2013-05-24 02:00:00,27.0,26.0,-100.00,SE,137,13.0,20.0,97,-99.99,,,-99.99,,2013-05-24 09:00:00,
2013-05-24 02:53:00,27.0,26.0,-100.00,SE,137,13.0,20.0,97,-99.99,,,-99.99,,2013-05-24 09:53:00,
2013-05-24 03:00:00,26.0,26.0,-100.00,South,185,13.0,21.0,98,-99.99,,,-99.99,,2013-05-24 10:00:00,
2013-05-24 03:52:00,26.0,26.0,-100.00,South,185,13.0,21.0,98,-99.99,,,-99.99,,2013-05-24 10:52:00,
2013-05-24 04:00:00,28.0,28.0,-100.00,SSW,193,12.0,21.0,99,-99.99,,,-99.99,,2013-05-24 11:00:00,
2013-05-24 04:52:00,28.0,28.0,-100.00,SSW,193,12.0,21.0,99,-99.99,,,-99.99,,2013-05-24 11:52:00,
2013-05-24 05:00:00,27.0,26.0,-100.00,SSW,199,10.0,16.0,97,-99.99,,,-99.99,,2013-05-24 12:00:00,
2013-05-24 05:52:00,27.0,26.0,-100.00,SSW,199,10.0,16.0,97,-99.99,,,-99.99,,2013-05-24 12:52:00,
2013-05-24 06:00:00,27.0,26.0,-100.00,SW,227,7.0,12.0,96,-99.99,,,-99.99,,2013-05-24 13:00:00,
2013-05-24 06:52:00,27.0,26.0,-100.00,SW,227,7.0,12.0,96,-99.99,,,-99.99,,2013-05-24 13:52:00,
2013-05-24 07:00:00,27.0,26.0,-100.00,WSW,258,5.0,6.0,97,-99.99,,,-99.99,,2013-05-24 14:00:00,
2013-05-24 07:52:00,27.0,26.0,-100.00,WSW,258,5.0,6.0,97,-99.99,,,-99.99,,2013-05-24 14:52:00,
2013-05-24 08:00:00,28.0,27.0,-100.00,West,262,3.0,6.0,97,-99.99,,,-99.99,,2013-05-24 15:00:00,
2013-05-24 08:52:00,28.0,27.0,-100.00,West,262,3.0,6.0,97,-99.99,,,-99.99,,2013-05-24 15:52:00,
2013-05-24 09:00:00,30.0,29.0,-100.00,WNW,287,3.0,7.0,96,-99.99,,,-99.99,,2013-05-24 16:00:00,
2013-05-24 09:52:00,30.0,29.0,-100.00,WNW,287,3.0,7.0,96,-99.99,,,-99.99,,2013-05-24 16:52:00,
2013-05-24 10:00:00,32.0,30.0,-100.00,West,276,5.0,8.0,91,-99.99,,,-99.99,,2013-05-24 17:00:00,
2013-05-24 10:52:00,32.0,30.0,-100.00,West,276,5.0,8.0,91,-99.99,,,-99.99,,2013-05-24 17:52:00,
2013-05-24 11:00:00,32.0,30.0,-100.00,NW,305,5.0,8.0,92,-99.99,,,-99.99,,2013-05-24 18:00:00,
2013-05-24 11:52:00,32.0,30.0,-100.00,NW,305,5.0,8.0,92,-99.99,,,-99.99,,2013-05-24 18:52:00,
2013-05-24 12:00:00,33.0,30.0,-100.00,WNW,293,3.0,6.0,90,-99.99,,,-99.99,,2013-05-24 19:00:00,
2013-05-24 12:52:00,33.0,30.0,-100.00,WNW,293,3.0,6.0,90,-99.99,,,-99.99,,2013-05-24 19:52:00,
2013-05-24 13:00:00,33.0,30.0,-100.00,West,275,6.0,12.0,88,-99.99,,,-99.99,,2013-05-24 20:00:00,
2013-05-24 13:52:00,33.0,30.0,-100.00,West,275,6.0,12.0,88,-99.99,,,-99.99,,2013-05-24 20:52:00,
2013-05-24 14:00:00,35.0,31.0,-100.00,West,264,5.0,8.0,85,-99.99,,,-99.99,,2013-05-24 21:00:00,
2013-05-24 14:53:00,35.0,31.0,-100.00,West,264,5.0,8.0,85,-99.99,,,-99.99,,2013-05-24 21:53:00,
2013-05-24 15:00:00,38.0,31.0,-100.00,WSW,252,3.0,9.0,76,-99.99,,,-99.99,,2013-05-24 22:00:00,
2013-05-24 15:52:00,38.0,31.0,-100.00,WSW,252,3.0,9.0,76,-99.99,,,-99.99,,2013-05-24 22:52:00,
2013-05-24 16:00:00,37.0,31.0,-100.00,SW,234,3.0,6.0,80,-99.99,,,-99.99,,2013-05-24 23:00:00,
2013-05-24 16:52:00,37.0,31.0,-100.00,SW,234,3.0,6.0,80,-99.99,,,-99.99,,2013-05-24 23:52:00,
2013-05-24 17:00:00,35.0,31.0,-100.00,West,262,2.0,6.0,86,-99.99,,,-99.99,,2013-05-25 00:00:00,
2013-05-24 17:52:00,35.0,31.0,-100.00,West,262,2.0,6.0,86,-99.99,,,-99.99,,2013-05-25 00:52:00,
2013-05-24 18:00:00,36.0,33.0,-100.00,West,268,2.0,5.0,88,-99.99,,,-99.99,,2013-05-25 01:00:00,
2013-05-24 18:52:00,36.0,33.0,-100.00,West,268,2.0,5.0,88,-99.99,,,-99.99,,2013-05-25 01:52:00,
2013-05-24 19:00:00,34.0,31.0,-100.00,SSE,147,2.0,6.0,89,-99.99,,,-99.99,,2013-05-25 02:00:00,
2013-05-24 19:52:00,34.0,31.0,-100.00,SSE,147,2.0,6.0,89,-99.99,,,-99.99,,2013-05-25 02:52:00,
2013-05-24 20:00:00,32.0,30.0,-100.00,SE,137,2.0,5.0,93,-99.99,,,-99.99,,2013-05-25 03:00:00,
2013-05-24 20:53:00,32.0,30.0,-100.00,SE,137,2.0,5.0,93,-99.99,,,-99.99,,2013-05-25 03:53:00,
2013-05-24 21:00:00,31.0,29.0,-100.00,SE,124,3.0,6.0,94,-99.99,,,-99.99,,2013-05-25 04:00:00,
2013-05-24 21:53:00,31.0,29.0,-100.00,SE,124,3.0,6.0,94,-99.99,,,-99.99,,2013-05-25 04:53:00,
2013-05-24 22:00:00,31.0,30.0,-100.00,SE,136,3.0,6.0,95,-99.99,,,-99.99,,2013-05-25 05:00:00,
2013-05-24 22:52:00,31.0,30.0,-100.00,SE,136,3.0,6.0,95,-99.99,,,-99.99,,2013-05-25 05:52:00,
2013-05-24 23:00:00,29.0,29.0,-100.00,SSW,212,3.0,8.0,99,-99.99,,,-99.99,,2013-05-25 06:00:00,
2013-05-24 23:52:00,29.0,29.0,-100.00,SSW,212,3.0,8.0,99,-99.99,,,-99.99,,2013-05-25 06:52:00,